Time;durP1;ratioP1;P1;durP2;ratioP2;P2;SDS_P1;SDS_P2;PMS_P1;PMS_P2;Temp;Humidity;BMP_temperature;BMP_pressure;BME280_temperature;BME280_humidity;BME280_pressure;Samples;Min_cycle;Max_cycle;Signal;HPM_P1;HPM_P2
2022/12/20 00:01:34;;;;;;;2.17;1.25;;;;;;;;;;5030521;28;20595;-75
2022/12/20 00:04:02;;;;;;;2.63;0.95;;;;;;;;;;5025991;28;20476;-75
2022/12/20 00:06:28;;;;;;;2.30;0.60;;;;;;;;;;5022727;28;20096;-74
2022/12/20 00:08:55;;;;;;;1.65;0.70;;;;;;;;;;5028006;28;20038;-75
2022/12/20 00:11:20;;;;;;;2.95;1.02;;;;;;;;;;5025450;28;20049;-75
2022/12/20 00:13:46;;;;;;;1.17;0.60;;;;;;;;;;5014720;28;20508;-77
2022/12/20 00:16:16;;;;;;;3.72;1.13;;;;;;;;;;5020390;28;20040;-78
2022/12/20 00:18:42;;;;;;;1.67;0.80;;;;;;;;;;5024509;28;20037;-77
2022/12/20 00:21:09;;;;;;;2.72;1.08;;;;;;;;;;5022589;28;20044;-76
2022/12/20 00:23:36;;;;;;;2.58;0.90;;;;;;;;;;5024189;28;20041;-76
2022/12/20 00:26:10;;;;;;;2.78;0.85;;;;;;;;;;5020737;28;20104;-77
2022/12/20 00:28:35;;;;;;;;;;;;;;;;;;5033715;28;20520;-77
2022/12/20 00:31:02;;;;;;;3.85;2.28;;;;;;;;;;5023653;28;20008;-77
2022/12/20 00:33:27;;;;;;;4.40;1.00;;;;;;;;;;5028870;28;20033;-77
2022/12/20 00:35:56;;;;;;;1.45;0.63;;;;;;;;;;5024518;28;20495;-77
2022/12/20 00:38:23;;;;;;;2.58;0.82;;;;;;;;;;5042273;28;20127;-76
2022/12/20 00:41:02;;;;;;;2.28;0.95;;;;;;;;;;5014282;28;20049;-77
2022/12/20 00:43:28;;;;;;;1.45;0.60;;;;;;;;;;5018727;28;20044;-76
2022/12/20 00:45:53;;;;;;;1.27;0.70;;;;;;;;;;5019307;28;20029;-77
2022/12/20 00:48:19;;;;;;;1.67;0.93;;;;;;;;;;5023591;28;21343;-76
2022/12/20 00:50:44;;;;;;;1.08;0.70;;;;;;;;;;5020319;28;20068;-76
2022/12/20 00:53:10;;;;;;;0.85;0.55;;;;;;;;;;5022158;28;20022;-77
2022/12/20 00:55:41;;;;;;;3.40;1.67;;;;;;;;;;5028145;28;20076;-77
2022/12/20 00:58:06;;;;;;;1.70;0.90;;;;;;;;;;5015052;28;20061;-77
2022/12/20 01:00:32;;;;;;;3.20;1.08;;;;;;;;;;5020566;28;20068;-77
2022/12/20 01:02:57;;;;;;;5.32;1.73;;;;;;;;;;5013290;28;20058;-76
2022/12/20 01:05:22;;;;;;;5.93;2.95;;;;;;;;;;5025871;28;20052;-76
2022/12/20 01:07:48;;;;;;;8.10;3.15;;;;;;;;;;5026794;28;20035;-77
2022/12/20 01:10:13;;;;;;;7.80;3.35;;;;;;;;;;5029835;28;20037;-77
2022/12/20 01:12:39;;;;;;;6.43;2.70;;;;;;;;;;5028584;28;20073;-76
2022/12/20 01:15:05;;;;;;;7.07;2.88;;;;;;;;;;5015034;28;20045;-77
2022/12/20 01:17:30;;;;;;;9.60;3.20;;;;;;;;;;5022044;28;20034;-78
2022/12/20 01:19:56;;;;;;;8.57;2.92;;;;;;;;;;5022402;28;20103;-77
2022/12/20 01:22:21;;;;;;;11.00;3.08;;;;;;;;;;5025328;28;20038;-76
2022/12/20 01:24:47;;;;;;;7.00;2.38;;;;;;;;;;5020632;28;20030;-77
2022/12/20 01:27:12;;;;;;;8.50;2.88;;;;;;;;;;5021887;28;20409;-76
2022/12/20 01:29:38;;;;;;;7.70;2.25;;;;;;;;;;5028113;28;20038;-76
2022/12/20 01:32:03;;;;;;;7.63;1.92;;;;;;;;;;5020728;28;20068;-76
2022/12/20 01:34:29;;;;;;;11.00;2.60;;;;;;;;;;5029701;28;20373;-77
2022/12/20 01:36:54;;;;;;;6.82;1.80;;;;;;;;;;5023745;28;20487;-76
2022/12/20 01:39:20;;;;;;;5.55;1.98;;;;;;;;;;5017126;28;20041;-76
2022/12/20 01:41:46;;;;;;;7.20;2.30;;;;;;;;;;5029271;28;20034;-75
2022/12/20 01:44:18;;;;;;;8.85;1.98;;;;;;;;;;5033839;28;20358;-77
2022/12/20 01:46:45;;;;;;;7.38;2.05;;;;;;;;;;5026397;28;20123;-76
2022/12/20 01:49:15;;;;;;;10.18;2.15;;;;;;;;;;5026979;28;20054;-76
2022/12/20 01:51:49;;;;;;;122.70;3.85;;;;;;;;;;5028911;28;20156;-76
2022/12/20 01:54:27;;;;;;;80.68;2.78;;;;;;;;;;5016088;28;20119;-76
2022/12/20 01:56:57;;;;;;;28.20;2.25;;;;;;;;;;5009045;28;20042;-75
2022/12/20 01:59:24;;;;;;;9.55;1.90;;;;;;;;;;5028697;28;20060;-75
2022/12/20 02:01:49;;;;;;;5.80;1.48;;;;;;;;;;5030535;28;20128;-75
2022/12/20 02:04:15;;;;;;;11.43;2.22;;;;;;;;;;5029822;28;20104;-75
2022/12/20 02:06:40;;;;;;;13.80;3.13;;;;;;;;;;5022705;28;20120;-76
2022/12/20 02:09:07;;;;;;;20.85;3.10;;;;;;;;;;5025162;28;20400;-75
2022/12/20 02:11:39;;;;;;;14.05;2.58;;;;;;;;;;5021598;28;20388;-75
2022/12/20 02:14:27;;;;;;;10.68;3.13;;;;;;;;;;5023643;28;20065;-76
2022/12/20 02:17:07;;;;;;;11.63;2.78;;;;;;;;;;5021844;28;20080;-75
2022/12/20 02:19:45;;;;;;;14.90;2.60;;;;;;;;;;5018291;28;20528;-75
2022/12/20 02:22:17;;;;;;;11.95;3.63;;;;;;;;;;5020791;28;20033;-76
2022/12/20 02:25:09;;;;;;;6.82;2.15;;;;;;;;;;5021158;28;20065;-75
2022/12/20 02:28:25;;;;;;;16.58;3.25;;;;;;;;;;5021769;28;20041;-75
2022/12/20 02:30:53;;;;;;;255.98;10.13;;;;;;;;;;5031408;28;20042;-76
2022/12/20 02:33:20;;;;;;;89.03;5.00;;;;;;;;;;5013416;28;20489;-76
2022/12/20 02:35:46;;;;;;;60.63;3.88;;;;;;;;;;5023272;28;20037;-76
2022/12/20 02:38:23;;;;;;;16.70;3.17;;;;;;;;;;5026474;28;20044;-75
2022/12/20 02:40:53;;;;;;;13.07;3.05;;;;;;;;;;5021629;28;20045;-75
2022/12/20 02:46:04;;;;;;;16.63;2.55;;;;;;;;;;5022626;28;20052;-77
2022/12/20 02:48:31;;;;;;;3.58;1.05;;;;;;;;;;5025645;28;20053;-77
2022/12/20 02:50:58;;;;;;;1.20;0.70;;;;;;;;;;5043837;28;20034;-76
2022/12/20 02:53:23;;;;;;;0.73;0.40;;;;;;;;;;5018471;28;20095;-77
2022/12/20 02:56:06;;;;;;;2.40;0.75;;;;;;;;;;5059864;28;20085;-76
2022/12/20 02:58:37;;;;;;;0.85;0.57;;;;;;;;;;5023012;28;20041;-77
2022/12/20 03:01:08;;;;;;;0.55;0.40;;;;;;;;;;5019803;28;20038;-77
2022/12/20 03:03:34;;;;;;;2.72;0.60;;;;;;;;;;5020909;28;20033;-76
2022/12/20 03:06:00;;;;;;;16.17;0.88;;;;;;;;;;5025005;28;20409;-76
2022/12/20 03:08:26;;;;;;;5.38;0.50;;;;;;;;;;5023734;28;20048;-77
2022/12/20 03:10:53;;;;;;;1.25;0.50;;;;;;;;;;5019499;28;20034;-76
2022/12/20 03:13:18;;;;;;;3.35;0.50;;;;;;;;;;5027150;28;20084;-76
2022/12/20 03:15:44;;;;;;;0.35;0.25;;;;;;;;;;5025819;28;20461;-76
2022/12/20 03:18:09;;;;;;;0.28;0.20;;;;;;;;;;5021863;28;20025;-76
2022/12/20 03:20:34;;;;;;;0.57;0.30;;;;;;;;;;5018276;28;20034;-78
2022/12/20 03:23:00;;;;;;;0.73;0.32;;;;;;;;;;5030988;28;20049;-78
2022/12/20 03:25:25;;;;;;;0.43;0.30;;;;;;;;;;5025232;28;20033;-78
2022/12/20 03:27:51;;;;;;;1.52;0.40;;;;;;;;;;5021185;28;20118;-77
2022/12/20 03:30:16;;;;;;;0.77;0.32;;;;;;;;;;5020041;28;20042;-76
2022/12/20 03:32:42;;;;;;;1.45;0.30;;;;;;;;;;5021492;28;20055;-78
2022/12/20 03:35:07;;;;;;;2.33;0.40;;;;;;;;;;5050258;28;20088;-77
2022/12/20 03:37:33;;;;;;;1.10;0.20;;;;;;;;;;5030438;28;20053;-78
2022/12/20 03:39:58;;;;;;;0.80;0.38;;;;;;;;;;5026681;28;20373;-75
2022/12/20 03:42:24;;;;;;;1.65;0.30;;;;;;;;;;5032686;28;20094;-75
2022/12/20 03:44:49;;;;;;;0.52;0.30;;;;;;;;;;5027052;28;20037;-76
2022/12/20 03:47:15;;;;;;;0.45;0.32;;;;;;;;;;5023155;28;20042;-75
2022/12/20 03:49:40;;;;;;;1.55;0.30;;;;;;;;;;5026287;28;20041;-76
2022/12/20 03:52:06;;;;;;;3.80;0.50;;;;;;;;;;5025913;28;20063;-76
2022/12/20 03:54:31;;;;;;;0.55;0.40;;;;;;;;;;5017187;28;20498;-76
2022/12/20 03:56:56;;;;;;;5.95;1.15;;;;;;;;;;5025070;28;20040;-75
2022/12/20 03:59:22;;;;;;;10.13;0.57;;;;;;;;;;5014430;28;20442;-75
2022/12/20 04:01:47;;;;;;;1.27;0.50;;;;;;;;;;5017540;28;20064;-76
2022/12/20 04:04:14;;;;;;;2.72;0.50;;;;;;;;;;5020072;28;20109;-75
2022/12/20 04:06:39;;;;;;;3.63;0.43;;;;;;;;;;5018755;28;20044;-75
2022/12/20 04:09:05;;;;;;;5.07;0.50;;;;;;;;;;5017632;28;20033;-76
2022/12/20 04:11:30;;;;;;;2.38;0.50;;;;;;;;;;5015350;28;20485;-76
2022/12/20 04:13:56;;;;;;;0.93;0.30;;;;;;;;;;5021214;28;20045;-76
2022/12/20 04:16:23;;;;;;;2.38;0.40;;;;;;;;;;5012836;28;20034;-75
2022/12/20 04:18:49;;;;;;;2.25;0.60;;;;;;;;;;5024706;28;20492;-75
2022/12/20 04:21:15;;;;;;;5.60;0.73;;;;;;;;;;5019436;28;20060;-76
2022/12/20 04:23:41;;;;;;;4.57;0.60;;;;;;;;;;5014211;28;20046;-75
2022/12/20 04:26:08;;;;;;;14.70;0.60;;;;;;;;;;5019361;28;20061;-75
2022/12/20 04:28:34;;;;;;;0.43;0.30;;;;;;;;;;5025042;28;20073;-76
2022/12/20 04:30:59;;;;;;;38.22;1.40;;;;;;;;;;5018859;28;20478;-76
2022/12/20 04:33:26;;;;;;;16.05;0.73;;;;;;;;;;5021134;28;20118;-76
2022/12/20 04:35:52;;;;;;;7.95;0.52;;;;;;;;;;5019490;28;20091;-75
2022/12/20 04:38:18;;;;;;;8.02;0.43;;;;;;;;;;5016242;28;20117;-75
2022/12/20 04:40:44;;;;;;;8.65;0.73;;;;;;;;;;5018085;28;20132;-75
2022/12/20 04:43:09;;;;;;;4.40;0.63;;;;;;;;;;5022242;28;20038;-75
2022/12/20 04:45:35;;;;;;;1.95;0.60;;;;;;;;;;5023800;28;20044;-75
2022/12/20 04:48:00;;;;;;;5.65;0.75;;;;;;;;;;5027713;28;20076;-75
2022/12/20 04:50:26;;;;;;;1.90;0.30;;;;;;;;;;5028199;28;20042;-76
2022/12/20 04:55:37;;;;;;;1.10;0.60;;;;;;;;;;5015532;28;20052;-75
2022/12/20 04:58:02;;;;;;;4.18;0.60;;;;;;;;;;5028841;28;20033;-75
2022/12/20 05:00:27;;;;;;;3.45;0.60;;;;;;;;;;5017948;28;20042;-75
2022/12/20 05:02:53;;;;;;;1.55;0.50;;;;;;;;;;5019246;28;20033;-75
2022/12/20 05:05:18;;;;;;;2.40;0.43;;;;;;;;;;5033203;28;20374;-74
2022/12/20 05:07:44;;;;;;;1.42;0.60;;;;;;;;;;5028464;28;20120;-75
2022/12/20 05:10:09;;;;;;;2.67;0.75;;;;;;;;;;5022886;28;20021;-76
2022/12/20 05:12:35;;;;;;;1.45;0.55;;;;;;;;;;5030980;28;20416;-75
2022/12/20 05:15:00;;;;;;;3.38;0.50;;;;;;;;;;5022167;28;20041;-75
2022/12/20 05:17:25;;;;;;;2.10;0.50;;;;;;;;;;5031002;28;20091;-75
2022/12/20 05:19:51;;;;;;;2.28;0.80;;;;;;;;;;5029013;28;20042;-75
2022/12/20 05:27:44;;;;;;;9.27;0.73;;;;;;;;;;5029698;28;20115;-74
2022/12/20 05:30:10;;;;;;;43.63;1.85;;;;;;;;;;5017237;28;20029;-75
2022/12/20 05:32:35;;;;;;;3.05;0.45;;;;;;;;;;5018433;28;20485;-74
2022/12/20 05:35:00;;;;;;;3.58;0.43;;;;;;;;;;5018379;28;20461;-75
2022/12/20 05:37:26;;;;;;;1.45;0.50;;;;;;;;;;5022021;28;20049;-76
2022/12/20 05:39:51;;;;;;;7.07;0.70;;;;;;;;;;5019104;28;20121;-75
2022/12/20 05:42:16;;;;;;;10.05;0.63;;;;;;;;;;5025366;28;20461;-75
2022/12/20 05:44:42;;;;;;;65.85;2.17;;;;;;;;;;5021455;28;20123;-75
2022/12/20 05:47:07;;;;;;;80.60;2.55;;;;;;;;;;5024069;28;20037;-76
2022/12/20 05:49:33;;;;;;;49.70;1.90;;;;;;;;;;5016159;28;20060;-75
2022/12/20 05:51:59;;;;;;;28.13;1.13;;;;;;;;;;5025803;28;20444;-74
2022/12/20 05:54:24;;;;;;;28.15;1.27;;;;;;;;;;5025342;28;20077;-75
2022/12/20 05:56:50;;;;;;;28.92;1.25;;;;;;;;;;5023909;28;20091;-75
2022/12/20 05:59:16;;;;;;;20.48;1.08;;;;;;;;;;5023928;28;20033;-75
2022/12/20 06:01:42;;;;;;;38.15;1.33;;;;;;;;;;5021088;28;20045;-75
2022/12/20 06:04:07;;;;;;;8.23;0.63;;;;;;;;;;5022716;28;20029;-74
2022/12/20 06:06:33;;;;;;;26.15;0.88;;;;;;;;;;5029274;28;20041;-75
2022/12/20 06:08:58;;;;;;;40.25;1.95;;;;;;;;;;5022386;28;20041;-74
2022/12/20 06:11:23;;;;;;;3.10;0.90;;;;;;;;;;5007140;28;20061;-75
2022/12/20 06:13:49;;;;;;;2.67;1.13;;;;;;;;;;5015054;28;20037;-75
2022/12/20 06:16:14;;;;;;;4.95;1.10;;;;;;;;;;5017024;28;20068;-75
2022/12/20 06:18:39;;;;;;;6.95;1.25;;;;;;;;;;5027483;28;20377;-75
2022/12/20 06:21:05;;;;;;;8.85;1.73;;;;;;;;;;5027160;28;20061;-75
2022/12/20 06:23:30;;;;;;;11.38;1.98;;;;;;;;;;5016649;28;20044;-75
2022/12/20 06:25:56;;;;;;;7.50;2.28;;;;;;;;;;5019904;28;20469;-75
2022/12/20 06:28:22;;;;;;;14.38;2.47;;;;;;;;;;5024572;28;20030;-75
2022/12/20 06:30:55;;;;;;;11.15;2.22;;;;;;;;;;5020060;28;20485;-75
2022/12/20 06:33:20;;;;;;;6.15;2.15;;;;;;;;;;5021595;28;20104;-76
2022/12/20 06:35:46;;;;;;;9.13;2.58;;;;;;;;;;5023113;28;20109;-74
2022/12/20 06:38:11;;;;;;;17.55;4.10;;;;;;;;;;5019108;28;20030;-75
2022/12/20 06:40:37;;;;;;;12.02;4.03;;;;;;;;;;5025140;28;20038;-74
2022/12/20 06:43:02;;;;;;;19.23;5.55;;;;;;;;;;5018988;28;20037;-75
2022/12/20 06:45:27;;;;;;;16.77;4.38;;;;;;;;;;5022874;28;20046;-75
2022/12/20 06:47:53;;;;;;;13.77;4.43;;;;;;;;;;5029817;28;20052;-76
2022/12/20 06:50:18;;;;;;;12.43;4.85;;;;;;;;;;5029617;28;20112;-74
2022/12/20 06:52:44;;;;;;;15.52;4.20;;;;;;;;;;5025082;28;20049;-75
2022/12/20 06:55:09;;;;;;;20.55;4.45;;;;;;;;;;5023887;28;20036;-75
2022/12/20 06:57:34;;;;;;;14.98;4.15;;;;;;;;;;5025961;28;20048;-75
2022/12/20 07:00:00;;;;;;;17.67;4.60;;;;;;;;;;5022467;28;20038;-75
2022/12/20 07:02:25;;;;;;;17.63;4.88;;;;;;;;;;5028913;28;20029;-75
2022/12/20 07:04:50;;;;;;;26.95;6.15;;;;;;;;;;5023412;28;20026;-75
2022/12/20 07:07:16;;;;;;;23.20;6.03;;;;;;;;;;5024329;28;20033;-75
2022/12/20 07:09:41;;;;;;;22.95;4.68;;;;;;;;;;5021814;28;20088;-75
2022/12/20 07:12:10;;;;;;;30.70;5.57;;;;;;;;;;5016442;28;20072;-74
2022/12/20 07:14:35;;;;;;;31.88;5.45;;;;;;;;;;5016811;28;20045;-74
2022/12/20 07:17:01;;;;;;;28.02;5.60;;;;;;;;;;5021990;28;20423;-75
2022/12/20 07:19:26;;;;;;;41.58;6.20;;;;;;;;;;5022734;28;20041;-75
2022/12/20 07:21:52;;;;;;;34.75;6.25;;;;;;;;;;5028401;28;20037;-75
2022/12/20 07:24:17;;;;;;;29.23;6.10;;;;;;;;;;5026992;28;20033;-74
2022/12/20 07:26:44;;;;;;;25.77;5.25;;;;;;;;;;5022761;28;20464;-74
2022/12/20 07:29:10;;;;;;;22.90;4.78;;;;;;;;;;5026738;28;20064;-76
2022/12/20 07:31:35;;;;;;;29.13;4.03;;;;;;;;;;5024676;28;20117;-76
2022/12/20 07:34:00;;;;;;;20.25;4.43;;;;;;;;;;5019147;28;20040;-74
2022/12/20 07:36:26;;;;;;;31.15;4.80;;;;;;;;;;5013347;28;20037;-76
2022/12/20 07:38:51;;;;;;;15.25;3.30;;;;;;;;;;5016618;28;20208;-74
2022/12/20 07:41:18;;;;;;;19.98;3.05;;;;;;;;;;5016096;28;20424;-75
2022/12/20 07:43:43;;;;;;;28.70;3.22;;;;;;;;;;5016421;28;20072;-75
2022/12/20 07:46:15;;;;;;;30.85;5.65;;;;;;;;;;5015271;28;20065;-75
2022/12/20 07:48:40;;;;;;;33.00;9.77;;;;;;;;;;5018341;28;20053;-74
2022/12/20 07:51:08;;;;;;;35.20;5.65;;;;;;;;;;5013711;28;20034;-75
2022/12/20 07:53:36;;;;;;;31.30;6.15;;;;;;;;;;5015471;28;20042;-75
2022/12/20 07:56:03;;;;;;;16.45;4.78;;;;;;;;;;5014918;28;20049;-75
2022/12/20 07:58:29;;;;;;;24.38;5.85;;;;;;;;;;5031055;28;20041;-77
2022/12/20 08:00:55;;;;;;;23.52;4.88;;;;;;;;;;5017725;28;20044;-76
2022/12/20 08:03:28;;;;;;;37.22;5.28;;;;;;;;;;5016970;28;20071;-76
2022/12/20 08:05:55;;;;;;;26.08;4.25;;;;;;;;;;5001972;28;20050;-76
2022/12/20 08:08:21;;;;;;;18.98;3.63;;;;;;;;;;5016838;28;20033;-76
2022/12/20 08:10:47;;;;;;;22.30;3.20;;;;;;;;;;5015092;28;20034;-76
2022/12/20 08:13:12;;;;;;;23.65;3.55;;;;;;;;;;5026621;28;20533;-76
2022/12/20 08:15:38;;;;;;;28.65;3.72;;;;;;;;;;5018978;28;20025;-75
2022/12/20 08:18:05;;;;;;;25.17;3.90;;;;;;;;;;5015754;28;20084;-76
2022/12/20 08:20:31;;;;;;;44.03;4.72;;;;;;;;;;5020797;28;20129;-75
2022/12/20 08:22:56;;;;;;;18.73;3.25;;;;;;;;;;5031563;28;20112;-74
2022/12/20 08:25:22;;;;;;;17.98;3.63;;;;;;;;;;5021579;28;20129;-75
2022/12/20 08:27:48;;;;;;;22.75;3.80;;;;;;;;;;5019622;28;20062;-75
2022/12/20 08:30:14;;;;;;;23.17;3.45;;;;;;;;;;5020668;28;20453;-75
2022/12/20 08:32:39;;;;;;;21.33;2.63;;;;;;;;;;5019474;28;20050;-75
2022/12/20 08:35:05;;;;;;;16.85;2.65;;;;;;;;;;5018985;28;20041;-74
2022/12/20 08:37:31;;;;;;;26.67;3.53;;;;;;;;;;5035158;28;20030;-75
2022/12/20 08:39:56;;;;;;;23.77;3.38;;;;;;;;;;5025589;28;20187;-75
2022/12/20 08:42:21;;;;;;;21.45;3.35;;;;;;;;;;5022741;28;20135;-74
2022/12/20 08:44:47;;;;;;;19.45;3.83;;;;;;;;;;5022095;28;20040;-75
2022/12/20 08:47:12;;;;;;;16.60;2.30;;;;;;;;;;5023733;28;20041;-77
2022/12/20 08:49:37;;;;;;;22.77;3.05;;;;;;;;;;5024436;28;20501;-76
2022/12/20 08:52:03;;;;;;;23.30;2.85;;;;;;;;;;5013603;28;20169;-76
2022/12/20 08:54:29;;;;;;;15.32;2.40;;;;;;;;;;5019360;28;20489;-76
2022/12/20 08:56:54;;;;;;;25.60;2.70;;;;;;;;;;5022711;28;20359;-76
2022/12/20 08:59:20;;;;;;;13.57;1.90;;;;;;;;;;5022815;28;20080;-76
2022/12/20 09:01:45;;;;;;;13.73;2.00;;;;;;;;;;5019654;28;20038;-77
2022/12/20 09:04:11;;;;;;;26.40;2.17;;;;;;;;;;5023433;28;20045;-76
2022/12/20 09:06:36;;;;;;;25.13;3.78;;;;;;;;;;5019336;28;20033;-76
2022/12/20 09:09:02;;;;;;;32.15;2.90;;;;;;;;;;5020665;28;20539;-76
2022/12/20 09:11:28;;;;;;;15.50;2.33;;;;;;;;;;5015041;28;20070;-78
2022/12/20 09:13:55;;;;;;;16.92;2.13;;;;;;;;;;5008894;28;20068;-77
2022/12/20 09:16:26;;;;;;;24.90;2.88;;;;;;;;;;5018348;28;20100;-76
2022/12/20 09:18:54;;;;;;;22.63;2.47;;;;;;;;;;5035168;28;20038;-77
2022/12/20 09:21:20;;;;;;;26.23;3.38;;;;;;;;;;5016200;28;20026;-77
2022/12/20 09:23:46;;;;;;;20.38;2.33;;;;;;;;;;5037909;28;20361;-76
2022/12/20 09:26:14;;;;;;;38.88;2.70;;;;;;;;;;5013843;28;20072;-77
2022/12/20 09:28:40;;;;;;;25.98;2.92;;;;;;;;;;5013328;28;20034;-76
2022/12/20 09:31:07;;;;;;;31.15;1.98;;;;;;;;;;5009280;28;20033;-76
2022/12/20 09:33:33;;;;;;;18.80;1.70;;;;;;;;;;5015616;28;20128;-76
2022/12/20 09:35:59;;;;;;;39.08;2.63;;;;;;;;;;5020249;28;20111;-76
2022/12/20 09:38:26;;;;;;;24.75;2.25;;;;;;;;;;5016177;28;20425;-77
2022/12/20 09:41:00;;;;;;;25.25;2.47;;;;;;;;;;5048072;28;20048;-77
2022/12/20 09:43:26;;;;;;;31.75;2.65;;;;;;;;;;5015305;28;20072;-76
2022/12/20 09:45:55;;;;;;;24.17;1.98;;;;;;;;;;5050861;28;20045;-77
2022/12/20 09:48:39;;;;;;;21.05;2.58;;;;;;;;;;5020012;28;20501;-76
2022/12/20 09:51:13;;;;;;;16.33;2.47;;;;;;;;;;5020279;28;20042;-76
2022/12/20 09:53:49;;;;;;;20.75;2.00;;;;;;;;;;5019216;28;20389;-76
2022/12/20 09:56:26;;;;;;;33.47;2.85;;;;;;;;;;5013226;28;20107;-76
2022/12/20 09:59:09;;;;;;;21.13;2.28;;;;;;;;;;5035780;28;20022;-77
2022/12/20 10:01:35;;;;;;;25.52;2.88;;;;;;;;;;5023407;28;20034;-76
2022/12/20 10:04:06;;;;;;;23.75;3.78;;;;;;;;;;5016212;28;20056;-76
2022/12/20 10:06:57;;;;;;;28.08;2.60;;;;;;;;;;5021642;28;20124;-76
2022/12/20 10:09:35;;;;;;;23.02;2.30;;;;;;;;;;5022804;28;20037;-76
2022/12/20 10:12:08;;;;;;;23.80;3.15;;;;;;;;;;5008579;28;20383;-76
2022/12/20 10:14:34;;;;;;;30.83;2.70;;;;;;;;;;5005616;28;20045;-77
2022/12/20 10:17:22;;;;;;;19.30;2.25;;;;;;;;;;5008451;28;20092;-77
2022/12/20 10:20:03;;;;;;;15.25;3.20;;;;;;;;;;5008160;28;20048;-77
2022/12/20 10:22:33;;;;;;;20.77;3.28;;;;;;;;;;5019258;28;20179;-77
2022/12/20 10:25:10;;;;;;;31.92;2.58;;;;;;;;;;5010200;28;20393;-77
2022/12/20 10:27:40;;;;;;;33.75;2.10;;;;;;;;;;5028158;28;20050;-76
2022/12/20 10:30:14;;;;;;;33.03;2.38;;;;;;;;;;5016972;28;20049;-77
2022/12/20 10:32:42;;;;;;;27.63;2.38;;;;;;;;;;5016440;28;20042;-76
2022/12/20 10:35:14;;;;;;;18.90;2.30;;;;;;;;;;5026038;28;20033;-76
2022/12/20 10:37:56;;;;;;;14.25;2.30;;;;;;;;;;5015180;28;20057;-76
2022/12/20 10:40:27;;;;;;;21.70;2.25;;;;;;;;;;5012268;28;20124;-76
2022/12/20 10:42:52;;;;;;;20.52;2.45;;;;;;;;;;5014451;28;20046;-77
2022/12/20 10:45:17;;;;;;;26.25;2.17;;;;;;;;;;5010591;28;20041;-77
2022/12/20 10:47:44;;;;;;;12.75;1.95;;;;;;;;;;5017548;28;20053;-77
2022/12/20 10:50:19;;;;;;;22.65;2.88;;;;;;;;;;5013243;28;20112;-77
2022/12/20 10:52:45;;;;;;;27.10;2.53;;;;;;;;;;5026924;28;20374;-77
2022/12/20 10:55:34;;;;;;;28.20;4.20;;;;;;;;;;5011873;28;20049;-76
2022/12/20 10:58:32;;;;;;;25.65;2.50;;;;;;;;;;5014581;28;20034;-76
2022/12/20 11:01:10;;;;;;;24.63;3.25;;;;;;;;;;5018803;28;20029;-76
2022/12/20 11:03:48;;;;;;;20.73;2.60;;;;;;;;;;5017571;28;20049;-75
2022/12/20 11:06:16;;;;;;;29.02;2.53;;;;;;;;;;5014261;28;20493;-76
2022/12/20 11:08:41;;;;;;;21.17;2.15;;;;;;;;;;5028873;28;20037;-76
2022/12/20 11:11:22;;;;;;;31.80;4.20;;;;;;;;;;5013216;28;20046;-76
2022/12/20 11:13:48;;;;;;;19.25;2.60;;;;;;;;;;5013255;28;20053;-76
2022/12/20 11:16:42;;;;;;;28.17;3.95;;;;;;;;;;5023559;28;20042;-75
2022/12/20 11:19:17;;;;;;;27.45;2.22;;;;;;;;;;5021982;28;20041;-76
2022/12/20 11:21:58;;;;;;;31.20;2.50;;;;;;;;;;4997681;28;20038;-77
2022/12/20 11:25:03;;;;;;;31.60;2.53;;;;;;;;;;5017132;28;20046;-76
2022/12/20 11:27:41;;;;;;;21.60;2.80;;;;;;;;;;4990093;28;20127;-77
2022/12/20 11:30:21;;;;;;;35.83;3.15;;;;;;;;;;5006387;28;20050;-77
2022/12/20 11:32:58;;;;;;;26.15;2.25;;;;;;;;;;5010317;28;20026;-77
2022/12/20 11:35:27;;;;;;;22.80;2.63;;;;;;;;;;5013913;28;20088;-75
2022/12/20 11:38:24;;;;;;;23.77;2.53;;;;;;;;;;5013985;28;20038;-77
2022/12/20 11:41:09;;;;;;;29.63;2.58;;;;;;;;;;5021196;28;20039;-76
2022/12/20 11:43:48;;;;;;;25.08;2.88;;;;;;;;;;5019398;28;20037;-76
2022/12/20 11:46:19;;;;;;;21.85;3.08;;;;;;;;;;5019768;28;20432;-76
2022/12/20 11:49:07;;;;;;;23.30;2.78;;;;;;;;;;5018365;28;20480;-76
2022/12/20 11:51:58;;;;;;;16.33;2.65;;;;;;;;;;5011512;28;20046;-76
2022/12/20 11:54:36;;;;;;;18.15;2.60;;;;;;;;;;5026843;28;20057;-76
2022/12/20 11:57:11;;;;;;;23.33;2.72;;;;;;;;;;5014584;28;20086;-76
2022/12/20 11:59:45;;;;;;;28.40;3.53;;;;;;;;;;5023852;28;20128;-75
2022/12/20 12:02:13;;;;;;;28.02;3.30;;;;;;;;;;5015124;28;20397;-77
2022/12/20 12:04:47;;;;;;;24.92;2.70;;;;;;;;;;5025124;28;20045;-76
2022/12/20 12:07:22;;;;;;;25.73;2.85;;;;;;;;;;5025952;28;20118;-76
2022/12/20 12:09:59;;;;;;;33.45;3.28;;;;;;;;;;5013162;28;20026;-76
2022/12/20 12:12:39;;;;;;;28.33;3.10;;;;;;;;;;5016219;28;20394;-76
2022/12/20 12:15:14;;;;;;;22.88;2.70;;;;;;;;;;5016264;28;20054;-76
2022/12/20 12:17:59;;;;;;;28.40;3.55;;;;;;;;;;5015196;28;20050;-76
2022/12/20 12:20:42;;;;;;;23.67;2.95;;;;;;;;;;5016968;28;20042;-76
2022/12/20 12:23:28;;;;;;;26.45;2.22;;;;;;;;;;5015397;28;20401;-76
2022/12/20 12:25:54;;;;;;;21.75;2.45;;;;;;;;;;5015688;28;20056;-76
2022/12/20 12:28:20;;;;;;;24.00;2.67;;;;;;;;;;5015803;28;20045;-76
2022/12/20 12:30:57;;;;;;;22.15;2.38;;;;;;;;;;5018665;28;20057;-75
2022/12/20 12:33:51;;;;;;;31.83;2.97;;;;;;;;;;5014120;28;20034;-76
2022/12/20 12:36:41;;;;;;;20.67;3.10;;;;;;;;;;5013765;28;20057;-76
2022/12/20 12:39:26;;;;;;;25.80;2.90;;;;;;;;;;5013150;28;20038;-75
2022/12/20 12:42:04;;;;;;;23.63;3.17;;;;;;;;;;5017903;28;20488;-76
2022/12/20 12:44:40;;;;;;;22.38;2.95;;;;;;;;;;5017230;28;20046;-75
2022/12/20 12:47:21;;;;;;;24.00;2.95;;;;;;;;;;5012726;28;20092;-75
2022/12/20 12:49:49;;;;;;;19.85;2.97;;;;;;;;;;5018469;28;20049;-76
2022/12/20 12:52:34;;;;;;;21.83;2.10;;;;;;;;;;5036818;28;20042;-75
2022/12/20 12:55:00;;;;;;;26.58;2.85;;;;;;;;;;5020237;28;20057;-76
2022/12/20 12:57:26;;;;;;;19.05;2.90;;;;;;;;;;5027661;28;20136;-76
2022/12/20 12:59:52;;;;;;;29.48;2.75;;;;;;;;;;5030821;28;20059;-75
2022/12/20 13:02:19;;;;;;;11.80;2.30;;;;;;;;;;5018789;28;20544;-76
2022/12/20 13:05:01;;;;;;;19.33;2.17;;;;;;;;;;5014374;28;20485;-75
2022/12/20 13:07:32;;;;;;;12.00;2.40;;;;;;;;;;5025144;28;20416;-75
2022/12/20 13:09:59;;;;;;;24.67;2.90;;;;;;;;;;5016514;28;20083;-75
2022/12/20 13:12:37;;;;;;;23.40;3.53;;;;;;;;;;5022730;28;20040;-75
2022/12/20 13:15:21;;;;;;;20.98;2.88;;;;;;;;;;5024250;28;20157;-75
2022/12/20 13:17:56;;;;;;;20.70;2.63;;;;;;;;;;5016012;28;20121;-76
2022/12/20 13:20:25;;;;;;;17.63;2.50;;;;;;;;;;5021025;28;20037;-76
2022/12/20 13:23:22;;;;;;;16.45;2.25;;;;;;;;;;5016870;28;20405;-76
2022/12/20 13:25:52;;;;;;;21.05;3.15;;;;;;;;;;4984901;28;20053;-75
2022/12/20 13:28:24;;;;;;;20.52;2.63;;;;;;;;;;5022427;28;20376;-76
2022/12/20 13:30:52;;;;;;;20.75;2.70;;;;;;;;;;5021074;28;20124;-75
2022/12/20 13:33:22;;;;;;;18.70;3.72;;;;;;;;;;5022599;28;20038;-76
2022/12/20 13:35:57;;;;;;;14.05;2.30;;;;;;;;;;5034191;28;20073;-75
2022/12/20 13:38:44;;;;;;;28.45;3.20;;;;;;;;;;5019451;28;20666;-75
2022/12/20 13:41:21;;;;;;;17.33;2.58;;;;;;;;;;5022350;28;20078;-75
2022/12/20 13:43:48;;;;;;;22.35;2.58;;;;;;;;;;5015308;28;20408;-75
2022/12/20 13:46:25;;;;;;;23.10;3.00;;;;;;;;;;5022120;28;20474;-77
2022/12/20 13:49:02;;;;;;;17.42;3.45;;;;;;;;;;5022475;28;20050;-76
2022/12/20 13:51:30;;;;;;;19.30;2.35;;;;;;;;;;5033869;28;20042;-76
2022/12/20 13:54:02;;;;;;;10.90;2.08;;;;;;;;;;5021676;28;20083;-76
2022/12/20 13:56:28;;;;;;;18.38;3.22;;;;;;;;;;5025047;28;20046;-75
2022/12/20 13:59:02;;;;;;;21.00;3.30;;;;;;;;;;5027313;28;20044;-75
2022/12/20 14:01:29;;;;;;;23.15;3.28;;;;;;;;;;5038055;28;20138;-75
2022/12/20 14:03:55;;;;;;;9.23;1.83;;;;;;;;;;5024450;28;20061;-76
2022/12/20 14:06:22;;;;;;;22.83;2.60;;;;;;;;;;5027187;28;20037;-76
2022/12/20 14:08:50;;;;;;;18.45;3.22;;;;;;;;;;5022994;28;20034;-76
2022/12/20 14:11:27;;;;;;;24.58;2.83;;;;;;;;;;5025049;28;20373;-76
2022/12/20 14:13:56;;;;;;;22.25;3.65;;;;;;;;;;5012829;28;20384;-76
2022/12/20 14:16:24;;;;;;;25.17;2.80;;;;;;;;;;5028377;28;20045;-76
2022/12/20 14:19:03;;;;;;;24.90;2.90;;;;;;;;;;5021421;28;20427;-75
2022/12/20 14:21:29;;;;;;;23.83;3.80;;;;;;;;;;5029550;28;20092;-75
2022/12/20 14:23:59;;;;;;;24.02;2.60;;;;;;;;;;5020021;28;20115;-76
2022/12/20 14:26:34;;;;;;;21.55;2.72;;;;;;;;;;5012949;28;20091;-77
2022/12/20 14:29:00;;;;;;;25.52;3.65;;;;;;;;;;5012841;28;20045;-75
2022/12/20 14:31:39;;;;;;;19.88;2.75;;;;;;;;;;5023147;28;20037;-76
2022/12/20 14:34:15;;;;;;;25.38;4.07;;;;;;;;;;5022432;28;20061;-77
2022/12/20 14:36:46;;;;;;;23.20;2.70;;;;;;;;;;5016152;28;20044;-77
2022/12/20 14:39:26;;;;;;;18.67;2.50;;;;;;;;;;5012888;28;20038;-76
2022/12/20 14:42:15;;;;;;;19.63;3.00;;;;;;;;;;5020052;28;20129;-76
2022/12/20 14:44:40;;;;;;;24.73;4.93;;;;;;;;;;5013086;28;21350;-76
2022/12/20 14:47:16;;;;;;;30.15;5.40;;;;;;;;;;5016304;28;20042;-76
2022/12/20 14:49:48;;;;;;;28.70;3.15;;;;;;;;;;5018320;28;20080;-76
2022/12/20 14:52:21;;;;;;;17.05;2.95;;;;;;;;;;5013397;28;20034;-76
2022/12/20 14:54:54;;;;;;;20.00;2.95;;;;;;;;;;5013419;28;20038;-76
2022/12/20 14:57:35;;;;;;;30.85;4.93;;;;;;;;;;5023538;28;20648;-76
2022/12/20 15:00:00;;;;;;;17.60;2.63;;;;;;;;;;5010999;28;20124;-76